createdAt,value
2017-12-04T00:01:43.875Z,26.07
2017-12-04T00:04:11.350Z,23.73
2017-12-04T00:06:38.826Z,22.37
2017-12-04T00:09:06.309Z,21.43
2017-12-04T00:11:33.781Z,23.70
2017-12-04T00:14:02.054Z,24.57
2017-12-04T00:16:29.614Z,20.57
2017-12-04T00:18:57.635Z,28.20
2017-12-04T00:21:25.114Z,26.80
2017-12-04T00:23:53.211Z,22.90
2017-12-04T00:26:20.712Z,21.60
2017-12-04T00:28:48.934Z,25.10
2017-12-04T00:31:16.461Z,23.30
2017-12-04T00:33:44.807Z,23.77
2017-12-04T00:36:12.271Z,24.00
2017-12-04T00:38:39.793Z,27.70
2017-12-04T00:41:07.238Z,27.40
2017-12-04T00:43:34.722Z,29.73
2017-12-04T00:46:02.194Z,29.13
2017-12-04T00:48:29.713Z,23.60
2017-12-04T00:50:57.960Z,24.50
2017-12-04T00:53:25.446Z,20.07
2017-12-04T00:55:53.721Z,25.50
2017-12-04T00:58:21.963Z,20.17
2017-12-04T01:00:49.454Z,22.33
2017-12-04T01:03:16.946Z,23.33
2017-12-04T01:05:45.374Z,21.23
2017-12-04T01:08:12.866Z,21.80
2017-12-04T01:10:40.357Z,24.60
2017-12-04T01:13:07.846Z,22.23
2017-12-04T01:15:35.550Z,25.30
2017-12-04T01:18:03.019Z,25.23
2017-12-04T01:20:31.229Z,24.53
2017-12-04T01:22:58.756Z,21.97
2017-12-04T01:25:26.217Z,22.70
2017-12-04T01:27:53.772Z,22.40
2017-12-04T01:30:21.256Z,29.70
2017-12-04T01:32:48.739Z,20.33
2017-12-04T01:35:17.001Z,23.80
2017-12-04T01:37:44.544Z,23.90
2017-12-04T01:40:12.179Z,28.67
2017-12-04T01:42:39.723Z,21.07
2017-12-04T01:45:07.215Z,20.60
2017-12-04T01:47:34.735Z,20.80
2017-12-04T01:50:03.025Z,24.00
2017-12-04T01:52:31.346Z,25.37
2017-12-04T01:54:58.822Z,28.13
2017-12-04T01:57:26.381Z,22.40
2017-12-04T01:59:53.890Z,19.03
2017-12-04T02:02:22.193Z,23.03
2017-12-04T02:04:49.712Z,24.60
2017-12-04T02:07:17.246Z,22.33
2017-12-04T02:09:44.763Z,22.10
2017-12-04T02:12:13.145Z,24.80
2017-12-04T02:14:41.421Z,23.47
2017-12-04T02:17:09.682Z,24.93
2017-12-04T02:19:37.215Z,18.93
2017-12-04T02:22:04.713Z,20.57
2017-12-04T02:24:32.257Z,21.70
2017-12-04T02:26:59.872Z,18.63
2017-12-04T02:29:28.151Z,20.47
2017-12-04T02:31:55.673Z,19.30
2017-12-04T02:34:23.166Z,21.90
2017-12-04T02:36:51.471Z,22.77
2017-12-04T02:39:18.970Z,26.20
2017-12-04T02:41:46.518Z,26.50
2017-12-04T02:44:14.041Z,23.87
2017-12-04T02:46:42.319Z,20.03
2017-12-04T02:49:10.567Z,20.23
2017-12-04T02:51:38.214Z,18.50
2017-12-04T02:54:05.795Z,18.87
2017-12-04T02:56:33.327Z,21.23
2017-12-04T02:59:00.950Z,20.73
2017-12-04T03:01:28.446Z,17.93
2017-12-04T03:03:55.973Z,18.53
2017-12-04T03:06:23.496Z,21.83
2017-12-04T03:08:51.000Z,19.00
2017-12-04T03:11:18.505Z,19.37
2017-12-04T03:13:46.024Z,20.03
2017-12-04T03:16:13.506Z,22.03
2017-12-04T03:18:41.795Z,20.43
2017-12-04T03:21:10.160Z,23.43
2017-12-04T03:23:37.663Z,20.43
2017-12-04T03:26:05.231Z,24.03
2017-12-04T03:28:32.793Z,18.77
2017-12-04T03:31:00.423Z,22.87
2017-12-04T03:33:27.899Z,21.40
2017-12-04T03:35:55.411Z,18.53
2017-12-04T03:38:22.991Z,21.17
2017-12-04T03:40:50.511Z,19.07
2017-12-04T03:43:18.130Z,19.80
2017-12-04T03:45:45.666Z,20.93
2017-12-04T03:48:13.214Z,24.37
2017-12-04T03:50:40.702Z,21.33
2017-12-04T03:53:08.245Z,23.23
2017-12-04T03:55:35.747Z,19.27
2017-12-04T03:58:03.258Z,20.13
2017-12-04T04:00:30.790Z,20.30
2017-12-04T04:02:58.286Z,20.13
2017-12-04T04:05:25.813Z,20.17
2017-12-04T04:07:54.163Z,21.20
2017-12-04T04:10:21.860Z,17.83
2017-12-04T04:12:49.394Z,17.93
2017-12-04T04:15:16.890Z,18.63
2017-12-04T04:17:45.158Z,16.13
2017-12-04T04:20:12.708Z,16.53
2017-12-04T04:22:40.290Z,15.87
2017-12-04T04:25:07.783Z,19.20
2017-12-04T04:27:35.409Z,17.57
2017-12-04T04:30:03.012Z,18.37
2017-12-04T04:32:30.571Z,19.23
2017-12-04T04:34:58.870Z,17.87
2017-12-04T04:37:26.368Z,21.13
2017-12-04T04:39:53.974Z,17.60
2017-12-04T04:42:22.259Z,17.60
2017-12-04T04:44:50.554Z,15.73
2017-12-04T04:47:18.042Z,19.17
2017-12-04T04:49:45.743Z,19.50
2017-12-04T04:52:13.299Z,17.80
2017-12-04T04:54:40.890Z,20.37
2017-12-04T04:57:09.150Z,22.07
2017-12-04T04:59:36.658Z,17.13
2017-12-04T05:02:04.307Z,18.50
2017-12-04T05:04:32.562Z,18.20
2017-12-04T05:07:00.085Z,20.70
2017-12-04T05:09:28.355Z,18.23
2017-12-04T05:11:55.924Z,20.10
2017-12-04T05:14:23.444Z,18.63
2017-12-04T05:16:51.135Z,22.40
2017-12-04T05:19:18.681Z,24.50
2017-12-04T05:21:46.967Z,23.10
2017-12-04T05:24:15.271Z,19.20
2017-12-04T05:26:42.784Z,18.73
2017-12-04T05:29:10.277Z,23.37
2017-12-04T05:31:38.682Z,21.87
2017-12-04T05:34:06.192Z,20.30
2017-12-04T05:36:33.729Z,19.80
2017-12-04T05:39:01.257Z,17.43
2017-12-04T05:41:28.813Z,15.93
2017-12-04T05:43:57.082Z,15.80
2017-12-04T05:46:24.624Z,19.10
2017-12-04T05:48:52.429Z,16.27
2017-12-04T05:51:20.691Z,16.90
2017-12-04T05:53:49.007Z,14.03
2017-12-04T05:56:16.678Z,17.10
2017-12-04T05:58:44.303Z,17.07
2017-12-04T06:01:11.832Z,20.47
2017-12-04T06:03:39.334Z,17.90
2017-12-04T06:06:06.860Z,20.50
2017-12-04T06:08:34.407Z,18.10
2017-12-04T06:11:01.922Z,22.10
2017-12-04T06:13:29.411Z,17.47
2017-12-04T06:15:57.703Z,28.57
2017-12-04T06:18:25.409Z,20.40
2017-12-04T06:20:52.927Z,19.20
2017-12-04T06:23:20.455Z,16.87
2017-12-04T06:25:48.015Z,17.90
2017-12-04T06:28:15.520Z,18.83
2017-12-04T06:30:43.058Z,18.90
2017-12-04T06:33:11.323Z,15.33
2017-12-04T06:35:38.846Z,15.97
2017-12-04T06:38:06.334Z,17.37
2017-12-04T06:40:33.874Z,17.10
2017-12-04T06:43:01.382Z,20.00
2017-12-04T06:45:28.922Z,18.30
2017-12-04T06:47:56.490Z,18.40
2017-12-04T06:50:24.002Z,20.83
2017-12-04T06:52:52.343Z,17.53
2017-12-04T06:55:19.842Z,19.90
2017-12-04T06:57:48.131Z,18.60
2017-12-04T07:00:15.622Z,21.70
2017-12-04T07:02:43.159Z,26.30
2017-12-04T07:05:10.687Z,18.80
2017-12-04T07:07:38.236Z,17.60
2017-12-04T07:10:05.733Z,20.47
2017-12-04T07:12:34.099Z,18.33
2017-12-04T07:15:01.632Z,23.80
2017-12-04T07:17:29.204Z,20.57
2017-12-04T07:19:56.747Z,18.20
2017-12-04T07:22:24.234Z,22.47
2017-12-04T07:24:51.722Z,18.67
2017-12-04T07:27:19.255Z,16.23
2017-12-04T07:29:46.790Z,17.47
2017-12-04T07:32:14.539Z,19.50
2017-12-04T07:34:42.894Z,16.63
2017-12-04T07:37:10.404Z,18.03
2017-12-04T07:39:37.908Z,15.30
2017-12-04T07:42:05.493Z,16.63
2017-12-04T07:44:33.135Z,21.20
2017-12-04T07:47:00.664Z,15.93
2017-12-04T07:49:28.203Z,16.03
2017-12-04T07:51:56.571Z,17.23
2017-12-04T07:54:24.362Z,19.77
2017-12-04T07:56:52.720Z,15.80
2017-12-04T07:59:20.223Z,20.87
2017-12-04T08:01:47.762Z,17.33
2017-12-04T08:04:16.027Z,17.57
2017-12-04T08:06:43.544Z,17.23
2017-12-04T08:09:11.054Z,16.30
2017-12-04T08:11:38.550Z,20.20
2017-12-04T08:14:06.194Z,12.73
2017-12-04T08:16:34.468Z,17.40
2017-12-04T08:19:01.965Z,19.80
2017-12-04T08:21:29.514Z,13.83
2017-12-04T08:23:57.792Z,13.87
2017-12-04T08:26:26.046Z,22.87
2017-12-04T08:28:53.670Z,17.30
2017-12-04T08:31:21.331Z,16.97
2017-12-04T08:33:48.836Z,15.70
2017-12-04T08:36:16.365Z,15.60
2017-12-04T08:38:43.854Z,15.30
2017-12-04T08:41:11.344Z,16.33
2017-12-04T08:43:38.943Z,13.57
2017-12-04T08:46:06.487Z,14.00
2017-12-04T08:48:34.751Z,13.10
2017-12-04T08:51:02.424Z,13.40
2017-12-04T08:53:30.680Z,13.83
2017-12-04T08:55:58.209Z,15.43
2017-12-04T08:58:25.722Z,15.87
2017-12-04T09:00:53.260Z,10.67
2017-12-04T09:03:20.758Z,15.17
2017-12-04T09:05:49.002Z,8.33
2017-12-04T09:08:16.582Z,12.83
2017-12-04T09:10:44.074Z,18.73
2017-12-04T09:13:12.361Z,11.60
2017-12-04T09:15:40.634Z,14.57
2017-12-04T09:18:08.890Z,12.00
2017-12-04T09:20:36.519Z,12.60
2017-12-04T09:23:04.042Z,16.20
2017-12-04T09:25:32.307Z,14.87
2017-12-04T09:27:59.816Z,12.03
2017-12-04T09:30:27.319Z,14.10
2017-12-04T09:32:54.837Z,18.70
2017-12-04T09:35:22.358Z,16.13
2017-12-04T09:37:49.842Z,15.10
2017-12-04T09:40:18.143Z,18.67
2017-12-04T09:42:45.642Z,13.30
2017-12-04T09:45:13.186Z,17.53
2017-12-04T09:47:40.682Z,15.50
2017-12-04T09:50:08.188Z,14.13
2017-12-04T09:52:35.733Z,15.47
2017-12-04T09:55:04.091Z,10.77
2017-12-04T09:57:32.398Z,11.30
2017-12-04T10:00:00.658Z,13.30
2017-12-04T10:02:28.228Z,10.50
2017-12-04T10:04:55.718Z,12.03
2017-12-04T10:07:24.003Z,12.93
2017-12-04T10:09:51.510Z,11.23
2017-12-04T10:12:19.040Z,10.40
2017-12-04T10:14:46.584Z,10.90
2017-12-04T10:17:14.146Z,13.27
2017-12-04T10:19:42.623Z,10.40
2017-12-04T10:22:10.914Z,13.93
2017-12-04T10:24:39.208Z,13.00
2017-12-04T10:27:06.703Z,12.33
2017-12-04T10:29:34.225Z,14.23
2017-12-04T10:32:02.479Z,12.10
2017-12-04T15:16:00.242Z,17.00
2017-12-04T15:18:27.778Z,14.50
2017-12-04T15:20:55.307Z,15.93
2017-12-04T15:23:22.839Z,12.77
2017-12-04T15:25:51.116Z,12.37
2017-12-04T15:28:18.662Z,14.50
2017-12-04T15:30:46.229Z,17.80
2017-12-04T15:33:13.767Z,15.73
2017-12-04T15:35:41.265Z,14.33
2017-12-04T15:38:08.843Z,11.53
2017-12-04T15:40:37.095Z,16.73
2017-12-04T15:43:04.660Z,9.67
2017-12-04T15:45:32.303Z,11.50
2017-12-04T15:47:59.805Z,10.23
2017-12-04T15:50:27.345Z,14.73
2017-12-04T15:52:55.111Z,11.90
2017-12-04T15:55:22.653Z,10.57
2017-12-04T15:57:50.144Z,9.43
2017-12-04T16:00:17.701Z,11.53
2017-12-04T16:02:45.227Z,9.13
2017-12-04T16:05:12.819Z,10.37
2017-12-04T16:07:40.329Z,11.40
2017-12-04T16:10:08.711Z,14.43
2017-12-04T16:12:37.068Z,12.63
2017-12-04T16:15:04.566Z,12.23
2017-12-04T16:17:32.842Z,12.83
2017-12-04T16:20:01.150Z,17.70
2017-12-04T16:22:28.650Z,12.53
2017-12-04T16:24:56.150Z,11.00
2017-12-04T16:27:24.433Z,9.40
2017-12-04T16:29:51.980Z,15.60
2017-12-04T16:32:19.531Z,10.37
2017-12-04T16:34:47.050Z,11.73
2017-12-04T16:37:14.560Z,12.80
2017-12-04T16:39:42.088Z,13.67
2017-12-04T16:42:09.594Z,10.57
2017-12-04T16:44:37.150Z,11.20
2017-12-04T16:47:04.692Z,9.63
2017-12-04T16:49:32.193Z,12.37
2017-12-04T16:51:59.738Z,10.43
2017-12-04T16:54:27.248Z,16.27
2017-12-04T16:56:54.962Z,15.30
2017-12-04T16:59:22.534Z,20.00
2017-12-04T17:01:50.023Z,22.33
2017-12-04T17:04:18.336Z,14.10
2017-12-04T17:06:45.907Z,18.80
2017-12-04T17:09:13.407Z,20.77
2017-12-04T17:11:40.941Z,19.90
2017-12-04T17:14:08.446Z,17.83
2017-12-04T17:16:36.016Z,14.03
2017-12-04T17:19:03.518Z,16.47
2017-12-04T17:21:31.082Z,16.97
2017-12-04T17:23:58.690Z,11.00
2017-12-04T17:26:26.178Z,9.37
2017-12-04T17:28:53.703Z,11.60
2017-12-04T17:31:21.248Z,8.67
2017-12-04T17:33:48.739Z,8.97
2017-12-04T17:36:16.290Z,12.17
2017-12-04T17:38:43.787Z,11.00
2017-12-04T17:41:11.297Z,9.30
2017-12-04T17:43:38.872Z,9.20
2017-12-04T17:46:06.374Z,8.57
2017-12-04T17:48:33.874Z,9.40
2017-12-04T17:51:01.406Z,7.27
2017-12-04T17:53:29.020Z,11.50
2017-12-04T17:55:56.520Z,16.53
2017-12-04T17:58:24.118Z,12.77
2017-12-04T18:00:51.614Z,10.20
2017-12-04T18:03:19.143Z,7.57
2017-12-04T18:05:47.412Z,8.57
2017-12-04T18:08:14.937Z,9.60
2017-12-04T18:10:42.957Z,10.77
2017-12-04T18:13:11.199Z,9.93
2017-12-04T18:15:38.733Z,10.73
2017-12-04T18:18:06.247Z,11.07
2017-12-04T18:20:33.900Z,10.53
2017-12-04T18:23:01.451Z,15.57
2017-12-04T18:25:29.104Z,11.30
2017-12-04T18:27:56.667Z,14.13
2017-12-04T18:30:24.215Z,11.37
2017-12-04T18:32:51.722Z,14.33
2017-12-04T18:35:19.241Z,11.20
2017-12-04T18:37:46.755Z,11.90
2017-12-04T18:40:14.254Z,16.37
2017-12-04T18:42:41.810Z,12.00
2017-12-04T18:45:10.095Z,12.60
2017-12-04T18:47:37.595Z,13.67
2017-12-04T18:50:05.155Z,13.33
2017-12-04T18:52:32.653Z,10.10
2017-12-04T18:55:00.158Z,10.13
2017-12-04T18:57:27.905Z,12.70
2017-12-04T18:59:55.401Z,10.27
2017-12-04T19:02:22.926Z,17.00
2017-12-04T19:04:50.506Z,20.80
2017-12-04T19:07:18.795Z,33.00
2017-12-04T19:09:47.045Z,58.27
2017-12-04T19:12:14.587Z,61.87
2017-12-04T19:14:42.703Z,31.20
2017-12-04T19:17:10.979Z,30.00
2017-12-04T19:19:38.552Z,27.00
2017-12-04T19:22:06.014Z,26.10
2017-12-04T19:24:34.407Z,18.37
2017-12-04T19:27:02.741Z,15.27
2017-12-04T19:29:30.288Z,14.80
2017-12-04T19:31:57.783Z,10.67
2017-12-04T19:34:25.284Z,11.70
2017-12-04T19:36:52.834Z,11.57
2017-12-04T19:39:21.112Z,13.33
2017-12-04T19:41:49.376Z,12.50
2017-12-04T19:44:16.918Z,12.50
2017-12-04T19:46:44.417Z,14.97
2017-12-04T19:49:12.811Z,17.40
2017-12-04T19:51:40.306Z,22.00
2017-12-04T19:54:07.806Z,15.90
2017-12-04T19:56:35.507Z,19.30
2017-12-04T19:59:03.179Z,14.23
2017-12-04T20:01:30.727Z,13.90
2017-12-04T20:03:58.999Z,11.77
2017-12-04T20:06:26.539Z,12.17
2017-12-04T20:08:54.035Z,11.40
2017-12-04T20:11:22.340Z,13.50
2017-12-04T20:13:49.839Z,12.40
2017-12-04T20:16:17.370Z,19.90
2017-12-04T20:18:44.926Z,17.70
2017-12-04T20:21:12.562Z,19.77
2017-12-04T20:23:40.842Z,28.10
2017-12-04T20:26:08.443Z,21.53
2017-12-04T20:28:35.927Z,17.63
2017-12-04T20:31:03.470Z,15.07
2017-12-04T20:33:31.017Z,14.20
2017-12-04T20:35:59.315Z,15.60
2017-12-04T20:38:26.856Z,15.80
2017-12-04T20:40:55.249Z,15.50
2017-12-04T20:43:23.554Z,12.77
2017-12-04T20:45:51.084Z,15.40
2017-12-04T20:48:19.388Z,12.80
2017-12-04T20:50:46.937Z,16.40
2017-12-04T20:53:14.445Z,13.90
2017-12-04T20:55:41.942Z,11.73
2017-12-04T20:58:09.479Z,10.93
2017-12-04T21:00:37.594Z,13.63
2017-12-04T21:03:05.202Z,10.53
2017-12-04T21:05:32.710Z,27.17
2017-12-04T21:08:00.258Z,10.90
2017-12-04T21:10:39.654Z,13.57
2017-12-04T21:13:19.065Z,14.17
2017-12-04T21:15:59.351Z,11.93
2017-12-04T21:18:26.891Z,16.47
2017-12-04T21:20:54.778Z,14.77
2017-12-04T21:23:23.047Z,13.20
2017-12-04T21:25:51.821Z,11.67
2017-12-04T21:28:20.130Z,9.43
2017-12-04T21:30:47.723Z,16.63
2017-12-04T21:33:16.934Z,9.53
2017-12-04T21:35:44.552Z,15.10
2017-12-04T21:38:12.079Z,14.83
2017-12-04T21:40:39.575Z,16.60
2017-12-04T21:43:07.096Z,11.83
2017-12-04T21:45:34.615Z,16.50
2017-12-04T21:48:02.151Z,12.00
2017-12-04T21:50:29.735Z,13.13
2017-12-04T21:52:57.230Z,11.10
2017-12-04T21:55:24.775Z,11.83
2017-12-04T21:57:52.279Z,12.30
2017-12-04T22:00:19.836Z,13.73
2017-12-04T22:02:47.435Z,49.47
2017-12-04T22:05:15.715Z,31.23
2017-12-04T22:07:44.035Z,22.37
2017-12-04T22:10:11.597Z,14.30
2017-12-04T22:12:39.139Z,14.80
2017-12-04T22:15:06.678Z,15.83
2017-12-04T22:17:34.208Z,12.53
2017-12-04T22:20:01.715Z,12.13
2017-12-04T22:22:30.026Z,14.70
2017-12-04T22:24:57.535Z,14.63
2017-12-04T22:27:25.076Z,15.60
2017-12-04T22:29:52.587Z,17.03
2017-12-04T22:32:21.015Z,16.13
2017-12-04T22:34:48.647Z,13.93
2017-12-04T22:37:16.131Z,15.50
2017-12-04T22:39:43.869Z,18.17
2017-12-04T22:42:12.155Z,17.50
2017-12-04T22:44:40.467Z,17.80
2017-12-04T22:47:07.974Z,18.20
2017-12-04T22:49:35.536Z,18.27
2017-12-04T22:52:03.036Z,12.83
2017-12-04T22:54:31.296Z,13.03
2017-12-04T22:56:58.835Z,19.27
2017-12-04T22:59:26.354Z,15.33
2017-12-04T23:01:53.985Z,20.30
2017-12-04T23:04:21.595Z,17.77
2017-12-04T23:06:49.130Z,14.53
2017-12-04T23:09:17.403Z,16.13
2017-12-04T23:11:45.798Z,15.67
2017-12-04T23:14:14.223Z,11.13
2017-12-04T23:16:41.804Z,15.20
2017-12-04T23:19:09.310Z,13.70
2017-12-04T23:21:37.626Z,15.13
2017-12-04T23:24:05.198Z,15.23
2017-12-04T23:26:32.760Z,10.83
2017-12-04T23:29:00.287Z,14.60
2017-12-04T23:31:28.565Z,13.50
2017-12-04T23:33:56.851Z,14.70
2017-12-04T23:36:24.374Z,12.40
2017-12-04T23:38:51.878Z,13.07
2017-12-04T23:41:20.190Z,16.47
2017-12-04T23:43:47.686Z,17.33
2017-12-04T23:46:15.179Z,13.70
2017-12-04T23:48:43.481Z,17.90
2017-12-04T23:51:11.007Z,15.60
2017-12-04T23:53:38.494Z,17.03
2017-12-04T23:56:05.985Z,19.70
2017-12-04T23:58:33.520Z,16.93
